Time;durP1;ratioP1;P1;durP2;ratioP2;P2;SDS_P1;SDS_P2;PMS_P1;PMS_P2;Temp;Humidity;BMP_temperature;BMP_pressure;BME280_temperature;BME280_humidity;BME280_pressure;Samples;Min_cycle;Max_cycle;Signal;HPM_P1;HPM_P2
2023/01/22 00:00:57;;;;;;;38.67;21.30;;;1.40;1.00;;;;;;4969523;28;20224;-88
2023/01/22 00:03:22;;;;;;;40.33;21.53;;;1.40;1.00;;;;;;4970769;28;20209;-88
2023/01/22 00:05:49;;;;;;;38.60;20.00;;;1.40;1.00;;;;;;4978237;28;20255;-87
2023/01/22 00:08:14;;;;;;;33.42;18.33;;;1.40;1.00;;;;;;4947328;28;20216;-87
2023/01/22 00:10:46;;;;;;;30.43;17.97;;;1.40;1.00;;;;;;4951888;28;20625;-88
2023/01/22 00:13:12;;;;;;;34.80;18.67;;;1.40;1.00;;;;;;4956250;28;20211;-88
2023/01/22 00:15:38;;;;;;;39.53;20.27;;;1.50;1.00;;;;;;4958600;28;20181;-88
2023/01/22 00:18:03;;;;;;;35.07;19.77;;;1.50;1.00;;;;;;4960649;28;20192;-88
2023/01/22 00:20:29;;;;;;;35.03;19.30;;;1.50;1.00;;;;;;4953380;28;20283;-88
2023/01/22 00:23:00;;;;;;;35.40;19.73;;;1.50;1.00;;;;;;4951287;28;20222;-87
2023/01/22 00:25:25;;;;;;;38.53;19.17;;;1.50;1.00;;;;;;4958824;28;20189;-88
2023/01/22 00:27:51;;;;;;;32.50;17.77;;;1.50;1.00;;;;;;4957217;28;20284;-88
2023/01/22 00:30:16;;;;;;;28.47;16.53;;;1.50;1.00;;;;;;4963476;28;20215;-87
2023/01/22 00:32:44;;;;;;;34.07;18.20;;;1.50;1.00;;;;;;4959826;28;20220;-88
2023/01/22 00:35:09;;;;;;;41.25;19.27;;;1.50;1.00;;;;;;4954613;28;20177;-88
2023/01/22 00:37:35;;;;;;;34.13;19.50;;;1.50;1.00;;;;;;4958337;28;20295;-88
2023/01/22 00:40:01;;;;;;;29.10;17.20;;;1.50;1.00;;;;;;4960645;28;20191;-87
2023/01/22 00:42:26;;;;;;;29.80;17.50;;;1.60;1.00;;;;;;4957028;28;20495;-86
2023/01/22 00:44:52;;;;;;;34.37;18.43;;;1.60;1.00;;;;;;4959722;28;20188;-88
2023/01/22 00:47:18;;;;;;;30.03;18.20;;;1.60;1.00;;;;;;4952523;28;20718;-87
2023/01/22 00:49:43;;;;;;;32.83;17.70;;;1.70;1.00;;;;;;4956957;28;20229;-88
2023/01/22 00:52:09;;;;;;;31.60;18.70;;;1.60;1.00;;;;;;4957052;28;20204;-88
2023/01/22 00:54:34;;;;;;;33.77;17.27;;;1.70;1.00;;;;;;4962810;28;20566;-87
2023/01/22 00:57:00;;;;;;;38.30;19.10;;;1.60;1.00;;;;;;4965408;28;20180;-88
2023/01/22 00:59:26;;;;;;;30.83;17.13;;;1.70;1.00;;;;;;4957928;28;20196;-87
2023/01/22 01:01:51;;;;;;;35.23;18.40;;;1.70;1.00;;;;;;4949744;28;20203;-88
2023/01/22 01:04:17;;;;;;;32.87;17.67;;;1.70;1.00;;;;;;4957590;28;20239;-88
2023/01/22 01:06:42;;;;;;;27.30;16.83;;;1.70;1.00;;;;;;4956818;28;20231;-86
2023/01/22 01:09:10;;;;;;;28.40;17.17;;;1.70;1.00;;;;;;4959642;28;20212;-88
2023/01/22 01:11:36;;;;;;;31.63;17.77;;;1.70;1.00;;;;;;4959054;28;20272;-87
2023/01/22 01:14:02;;;;;;;30.03;18.33;;;1.80;1.00;;;;;;4949224;28;20762;-88
2023/01/22 01:16:30;;;;;;;28.23;17.13;;;1.80;1.00;;;;;;4951782;28;20440;-88
2023/01/22 01:19:04;;;;;;;29.80;17.52;;;1.80;1.00;;;;;;4945225;28;20189;-87
2023/01/22 01:21:31;;;;;;;29.30;17.85;;;1.80;1.00;;;;;;4963036;28;20212;-87
2023/01/22 01:23:58;;;;;;;30.98;16.88;;;1.80;1.00;;;;;;4966160;28;20219;-88
2023/01/22 01:26:24;;;;;;;29.30;17.55;;;1.80;1.00;;;;;;4960211;28;20667;-88
2023/01/22 01:28:53;;;;;;;28.08;17.52;;;1.80;1.00;;;;;;4959980;28;20223;-88
2023/01/22 01:31:21;;;;;;;30.98;16.92;;;1.80;1.00;;;;;;4963780;28;20602;-87
2023/01/22 01:33:48;;;;;;;23.92;14.82;;;1.80;1.00;;;;;;4967259;28;20208;-87
2023/01/22 01:36:19;;;;;;;29.95;17.17;;;1.90;1.00;;;;;;4963392;28;20670;-87
2023/01/22 01:38:47;;;;;;;29.67;17.58;;;1.90;1.00;;;;;;4960969;28;20661;-87
2023/01/22 01:41:16;;;;;;;31.20;16.80;;;1.90;1.00;;;;;;4954138;28;20189;-88
2023/01/22 01:43:42;;;;;;;30.38;17.48;;;1.90;1.00;;;;;;4959789;28;20208;-88
2023/01/22 01:46:20;;;;;;;29.42;16.42;;;1.90;1.00;;;;;;4959803;28;20188;-87
2023/01/22 01:48:50;;;;;;;34.15;17.83;;;1.90;1.00;;;;;;4963167;28;20589;-88
2023/01/22 01:51:35;;;;;;;28.55;18.00;;;1.90;1.00;;;;;;4968652;28;20211;-87
2023/01/22 01:54:03;;;;;;;28.67;15.88;;;1.90;1.00;;;;;;4947296;28;20188;-88
2023/01/22 01:56:45;;;;;;;28.55;17.88;;;1.90;1.00;;;;;;4956902;28;20185;-88
2023/01/22 01:59:13;;;;;;;29.27;17.42;;;1.90;1.00;;;;;;4959525;28;20216;-88
2023/01/22 02:01:47;;;;;;;28.92;19.02;;;1.90;1.00;;;;;;4961739;28;20189;-87
2023/01/22 02:04:13;;;;;;;29.33;16.90;;;1.90;1.00;;;;;;4966329;28;20184;-87
2023/01/22 02:06:40;;;;;;;29.55;17.27;;;1.90;1.00;;;;;;4961798;28;20197;-88
2023/01/22 02:09:05;;;;;;;33.67;17.70;;;1.90;1.00;;;;;;4955981;28;20564;-87
2023/01/22 02:11:32;;;;;;;35.40;16.93;;;1.90;1.00;;;;;;4952807;28;20185;-87
2023/01/22 02:14:21;;;;;;;29.48;17.13;;;1.90;1.00;;;;;;4963802;28;20459;-88
2023/01/22 02:16:47;;;;;;;29.27;16.73;;;1.90;1.00;;;;;;4963019;28;20181;-88
2023/01/22 02:19:13;;;;;;;38.50;18.07;;;2.00;1.00;;;;;;4962240;28;20564;-88
2023/01/22 02:21:42;;;;;;;27.55;16.95;;;2.00;1.00;;;;;;4957450;28;20839;-87
2023/01/22 02:24:11;;;;;;;29.60;16.58;;;2.00;1.00;;;;;;4958847;28;20668;-88
2023/01/22 02:26:44;;;;;;;29.05;18.30;;;2.00;1.00;;;;;;4964062;28;20185;-88
2023/01/22 02:29:12;;;;;;;32.20;18.08;;;2.00;1.00;;;;;;4964066;28;20211;-88
2023/01/22 02:31:39;;;;;;;33.20;18.58;;;2.00;1.00;;;;;;4966889;28;20290;-88
2023/01/22 02:34:08;;;;;;;36.33;18.45;;;1.90;1.00;;;;;;4955459;28;20181;-88
2023/01/22 02:36:36;;;;;;;30.17;18.15;;;2.00;1.00;;;;;;4957481;28;20193;-86
2023/01/22 02:39:03;;;;;;;29.80;18.30;;;2.00;1.00;;;;;;4957183;28;20558;-88
2023/01/22 02:41:29;;;;;;;31.08;17.85;;;2.00;1.00;;;;;;4964296;28;20184;-88
2023/01/22 02:43:55;;;;;;;31.92;17.73;;;2.00;1.00;;;;;;4955588;28;20204;-87
2023/01/22 02:46:21;;;;;;;29.40;17.37;;;2.00;1.00;;;;;;4952923;28;20534;-86
2023/01/22 02:48:47;;;;;;;30.27;17.00;;;2.00;1.00;;;;;;4957303;28;20189;-87
2023/01/22 02:51:13;;;;;;;28.77;17.93;;;2.00;1.00;;;;;;4958600;28;20219;-88
2023/01/22 02:53:38;;;;;;;31.43;18.63;;;2.00;1.00;;;;;;4960203;28;20211;-88
2023/01/22 02:56:09;;;;;;;26.70;17.60;;;2.00;1.00;;;;;;4967894;28;20176;-87
2023/01/22 02:58:37;;;;;;;31.85;17.75;;;2.00;1.00;;;;;;4957757;28;20570;-87
2023/01/22 03:01:23;;;;;;;26.98;18.13;;;2.00;1.00;;;;;;4954900;28;20232;-87
2023/01/22 03:04:21;;;;;;;25.48;15.95;;;2.00;1.00;;;;;;4948995;28;20234;-87
2023/01/22 03:06:46;;;;;;;29.25;17.27;;;2.00;1.00;;;;;;4962614;28;20189;-90
2023/01/22 03:09:14;;;;;;;26.83;15.90;;;2.00;1.00;;;;;;4960807;28;20218;-90
2023/01/22 03:11:46;;;;;;;29.05;17.15;;;2.00;1.00;;;;;;4962975;28;20279;-90
2023/01/22 03:22:28;;;;;;;28.80;17.50;;;2.10;1.00;;;;;;4966710;28;20267;-88
2023/01/22 03:24:57;;;;;;;27.02;17.48;;;2.20;1.00;;;;;;4962514;28;20189;-88
2023/01/22 03:27:38;;;;;;;;;;;;;;;;;;;;;
2023/01/22 03:30:26;;;;;;;28.73;17.60;;;2.20;99.90;;;;;;4956400;28;20204;-88
2023/01/22 03:32:52;;;;;;;32.35;18.83;;;2.10;99.90;;;;;;4966996;28;20211;-87
2023/01/22 03:35:18;;;;;;;31.63;18.67;;;2.10;99.90;;;;;;4966151;28;20618;-88
2023/01/22 03:37:43;;;;;;;27.90;17.80;;;2.10;99.90;;;;;;4960035;28;20251;-91
2023/01/22 03:40:12;;;;;;;29.27;18.73;;;2.10;99.90;;;;;;4960275;28;20989;-88
2023/01/22 03:42:38;;;;;;;31.20;17.33;;;2.10;99.90;;;;;;4952914;28;20785;-87
2023/01/22 03:45:04;;;;;;;30.30;17.90;;;2.10;99.90;;;;;;4958648;28;20184;-89
2023/01/22 03:47:29;;;;;;;33.95;19.13;;;2.10;99.90;;;;;;4957416;28;20184;-88
2023/01/22 03:49:55;;;;;;;31.83;18.37;;;2.10;99.90;;;;;;4957247;28;20219;-86
2023/01/22 03:52:28;;;;;;;32.13;17.43;;;2.10;99.90;;;;;;4957606;28;20212;-87
2023/01/22 03:54:56;;;;;;;26.73;16.60;;;2.10;99.90;;;;;;4953414;28;20180;-88
2023/01/22 03:57:21;;;;;;;29.35;16.77;;;2.10;99.90;;;;;;4957345;28;20340;-89
2023/01/22 03:59:47;;;;;;;25.83;16.20;;;2.10;99.90;;;;;;4959700;28;20276;-89
2023/01/22 04:02:13;;;;;;;28.03;18.27;;;2.10;99.90;;;;;;4957202;28;20232;-88
2023/01/22 04:04:38;;;;;;;31.33;18.73;;;2.10;99.90;;;;;;4958638;28;20220;-88
2023/01/22 04:07:04;;;;;;;28.27;16.47;;;2.10;99.90;;;;;;4956454;28;20197;-89
2023/01/22 04:09:29;;;;;;;30.53;16.47;;;2.10;99.90;;;;;;4957309;28;20548;-88
2023/01/22 04:11:55;;;;;;;27.80;15.50;;;2.10;99.90;;;;;;4960615;28;20208;-89
2023/01/22 04:14:20;;;;;;;29.33;15.43;;;2.10;99.90;;;;;;4964816;28;20184;-89
2023/01/22 04:16:46;;;;;;;27.63;16.27;;;2.10;99.90;;;;;;4969787;28;20196;-88
2023/01/22 04:19:13;;;;;;;27.53;16.43;;;2.10;99.90;;;;;;4971686;28;20181;-89
2023/01/22 04:21:39;;;;;;;27.70;15.55;;;2.00;99.90;;;;;;4960317;28;20744;-88
2023/01/22 04:24:04;;;;;;;29.37;17.30;;;2.00;99.90;;;;;;4958490;28;20184;-88
2023/01/22 04:26:30;;;;;;;29.60;17.27;;;2.00;99.90;;;;;;4959977;28;20731;-88
2023/01/22 04:28:55;;;;;;;27.77;17.20;;;2.00;99.90;;;;;;4967006;28;20475;-88
2023/01/22 04:31:23;;;;;;;23.73;14.43;;;2.00;99.90;;;;;;4970065;28;20195;-88
2023/01/22 04:33:51;;;;;;;24.67;14.10;;;2.00;99.90;;;;;;4947902;28;20693;-87
2023/01/22 04:36:17;;;;;;;26.25;15.82;;;2.00;99.90;;;;;;4946709;28;20193;-88
2023/01/22 04:38:43;;;;;;;24.97;15.40;;;2.00;99.90;;;;;;4952757;28;20545;-87
2023/01/22 04:41:11;;;;;;;31.13;16.77;;;1.90;99.90;;;;;;4961818;28;20634;-89
2023/01/22 04:43:42;;;;;;;28.42;16.80;;;1.90;99.90;;;;;;4960701;28;20282;-88
2023/01/22 04:46:18;;;;;;;24.45;16.85;;;1.90;99.90;;;;;;4963897;28;20180;-88
2023/01/22 04:48:46;;;;;;;29.23;16.25;;;1.90;99.90;;;;;;4954165;28;20184;-88
2023/01/22 04:51:14;;;;;;;25.75;17.00;;;1.90;99.90;;;;;;4957369;28;20230;-87
2023/01/22 04:53:39;;;;;;;27.70;17.30;;;1.90;99.90;;;;;;4945424;28;20974;-88
2023/01/22 04:56:07;;;;;;;27.07;16.93;;;1.80;99.90;;;;;;4952151;28;20180;-88
2023/01/22 04:58:40;;;;;;;26.35;15.25;;;1.80;99.90;;;;;;4969272;28;20192;-88
2023/01/22 05:01:06;;;;;;;26.27;15.38;;;1.80;99.90;;;;;;4963195;28;20181;-87
2023/01/22 05:03:32;;;;;;;22.67;15.83;;;1.80;99.90;;;;;;4958786;28;20580;-88
2023/01/22 05:06:01;;;;;;;25.10;15.23;;;1.80;99.90;;;;;;4962747;28;20187;-89
2023/01/22 05:08:27;;;;;;;28.30;16.00;;;1.80;99.90;;;;;;4959156;28;20267;-88
2023/01/22 05:10:53;;;;;;;24.33;15.73;;;1.70;99.90;;;;;;4962083;28;20346;-88
2023/01/22 05:13:18;;;;;;;25.57;16.70;;;1.70;99.90;;;;;;4941953;28;20695;-88
2023/01/22 05:15:44;;;;;;;25.30;16.20;;;1.70;1.00;;;;;;4954706;28;20276;-88
2023/01/22 05:18:09;;;;;;;25.73;16.33;;;1.70;1.00;;;;;;4956395;28;20190;-88
2023/01/22 05:20:37;;;;;;;24.03;15.00;;;1.70;1.00;;;;;;4965397;28;20887;-88
2023/01/22 05:23:06;;;;;;;26.30;15.82;;;1.70;1.00;;;;;;4959687;28;20340;-88
2023/01/22 05:25:31;;;;;;;27.67;17.02;;;1.70;1.00;;;;;;4954668;28;20213;-88
2023/01/22 05:27:57;;;;;;;31.03;18.40;;;1.70;1.00;;;;;;4955997;28;20187;-88
2023/01/22 05:30:25;;;;;;;28.30;17.80;;;1.70;1.00;;;;;;4960364;28;20663;-89
2023/01/22 05:32:55;;;;;;;27.55;16.60;;;1.70;1.00;;;;;;4964629;28;20215;-88
2023/01/22 05:35:23;;;;;;;27.60;15.38;;;1.70;1.00;;;;;;4967056;28;20181;-87
2023/01/22 05:37:49;;;;;;;27.33;15.30;;;1.70;1.00;;;;;;4969299;28;20208;-89
2023/01/22 05:40:14;;;;;;;23.37;15.50;;;1.70;1.00;;;;;;4957266;28;20281;-87
2023/01/22 05:42:40;;;;;;;27.50;15.67;;;1.70;1.00;;;;;;4954393;28;20201;-88
2023/01/22 05:45:06;;;;;;;29.23;16.90;;;1.70;1.00;;;;;;4957130;28;20272;-88
2023/01/22 05:47:31;;;;;;;25.50;16.30;;;1.70;1.00;;;;;;4963585;28;20670;-87
2023/01/22 05:50:02;;;;;;;21.23;13.93;;;1.70;1.00;;;;;;4969211;28;20207;-88
2023/01/22 05:52:28;;;;;;;35.70;17.42;;;1.70;1.00;;;;;;4965654;28;20686;-87
2023/01/22 05:55:01;;;;;;;29.43;16.80;;;1.70;1.00;;;;;;4956673;28;20204;-88
2023/01/22 05:57:41;;;;;;;29.73;16.60;;;1.70;1.00;;;;;;4959867;28;20185;-87
2023/01/22 06:00:11;;;;;;;26.75;16.45;;;1.70;1.00;;;;;;4955755;28;20195;-90
2023/01/22 06:02:39;;;;;;;29.15;16.77;;;1.70;1.00;;;;;;4962152;28;20220;-90
2023/01/22 06:05:05;;;;;;;23.70;15.15;;;1.70;1.00;;;;;;4967187;28;20185;-89
2023/01/22 06:07:33;;;;;;;22.65;13.52;;;1.70;1.00;;;;;;4955330;28;20200;-89
2023/01/22 06:09:59;;;;;;;25.25;16.15;;;1.70;1.00;;;;;;4960181;28;20630;-89
2023/01/22 06:12:24;;;;;;;23.53;15.00;;;1.80;1.00;;;;;;4958926;28;20231;-90
2023/01/22 06:14:51;;;;;;;20.33;14.30;;;1.80;1.00;;;;;;4953307;28;20267;-90
2023/01/22 06:17:17;;;;;;;26.00;15.48;;;1.80;1.00;;;;;;4959195;28;20793;-90
2023/01/22 06:19:43;;;;;;;21.07;14.87;;;1.90;1.00;;;;;;4954074;28;20197;-89
2023/01/22 06:22:09;;;;;;;26.70;15.77;;;1.90;1.00;;;;;;4956792;28;20221;-90
2023/01/22 06:24:36;;;;;;;24.97;15.67;;;1.90;1.00;;;;;;4960722;28;20196;-89
2023/01/22 06:27:03;;;;;;;20.27;14.13;;;1.90;1.00;;;;;;4967375;28;20435;-90
2023/01/22 06:29:28;;;;;;;24.30;14.18;;;1.90;1.00;;;;;;4968237;28;20200;-90
2023/01/22 06:31:57;;;;;;;25.43;16.47;;;1.90;1.00;;;;;;4940640;28;20537;-90
2023/01/22 06:34:26;;;;;;;22.88;13.85;;;2.00;1.00;;;;;;4951109;28;20287;-90
2023/01/22 06:36:52;;;;;;;23.30;13.60;;;2.00;1.00;;;;;;4962461;28;20645;-90
2023/01/22 06:39:17;;;;;;;27.80;14.90;;;2.00;1.00;;;;;;4961592;28;20188;-90
2023/01/22 06:41:48;;;;;;;25.60;15.50;;;2.00;1.00;;;;;;4965502;28;20684;-89
2023/01/22 06:44:14;;;;;;;29.23;14.02;;;2.00;1.00;;;;;;4958000;28;20651;-89
2023/01/22 06:46:39;;;;;;;25.40;16.07;;;2.00;1.00;;;;;;4951912;28;20236;-90
2023/01/22 06:49:05;;;;;;;23.33;14.70;;;2.00;1.00;;;;;;4954735;28;20208;-90
2023/01/22 06:51:31;;;;;;;23.20;14.27;;;2.00;1.00;;;;;;4957781;28;20882;-90
2023/01/22 06:53:57;;;;;;;23.70;13.90;;;2.00;1.00;;;;;;4966046;28;20222;-90
2023/01/22 06:56:23;;;;;;;22.45;13.52;;;2.00;1.00;;;;;;4961779;28;20180;-90
2023/01/22 06:58:49;;;;;;;24.80;15.90;;;2.00;1.00;;;;;;4959734;28;20196;-91
2023/01/22 07:01:14;;;;;;;21.87;13.80;;;2.00;1.00;;;;;;4955616;28;20709;-90
2023/01/22 07:03:41;;;;;;;21.20;14.13;;;2.10;1.00;;;;;;4958619;28;20204;-90
2023/01/22 07:06:08;;;;;;;23.92;14.88;;;2.10;1.00;;;;;;4955373;28;20212;-89
2023/01/22 07:08:34;;;;;;;22.98;13.15;;;2.10;1.00;;;;;;4961651;28;20196;-88
2023/01/22 07:11:02;;;;;;;20.60;13.43;;;2.10;1.00;;;;;;4970563;28;20769;-90
2023/01/22 07:13:28;;;;;;;23.63;14.20;;;2.10;1.00;;;;;;4951786;28;20316;-89
2023/01/22 07:15:54;;;;;;;21.80;14.20;;;2.10;1.00;;;;;;4953248;28;20266;-89
2023/01/22 07:18:22;;;;;;;24.60;15.03;;;2.10;1.00;;;;;;4956102;28;20250;-90
2023/01/22 07:20:48;;;;;;;24.13;14.85;;;2.10;1.00;;;;;;4959557;28;21005;-88
2023/01/22 07:23:14;;;;;;;26.10;15.03;;;2.10;1.00;;;;;;4958329;28;20243;-90
2023/01/22 07:25:40;;;;;;;22.67;13.70;;;2.20;1.00;;;;;;4960740;28;20444;-90
2023/01/22 07:28:06;;;;;;;22.73;14.23;;;2.30;1.00;;;;;;4954300;28;20240;-90
2023/01/22 07:30:32;;;;;;;21.92;12.65;;;2.40;1.00;;;;;;4955784;28;20641;-91
2023/01/22 07:33:02;;;;;;;21.42;14.27;;;2.40;99.90;;;;;;4963937;28;20200;-88
2023/01/22 07:35:28;;;;;;;21.02;13.30;;;2.50;99.90;;;;;;4963849;28;20181;-88
2023/01/22 07:37:56;;;;;;;19.33;12.68;;;2.50;99.90;;;;;;4970988;28;20211;-89
2023/01/22 07:40:23;;;;;;;22.17;12.10;;;2.50;99.90;;;;;;4952534;28;20199;-91
2023/01/22 07:42:49;;;;;;;21.67;14.00;;;2.60;8.80;;;;;;4953695;28;20213;-90
2023/01/22 07:45:18;;;;;;;22.45;14.10;;;2.60;1.00;;;;;;4959146;28;20184;-88
2023/01/22 07:47:50;;;;;;;24.67;13.82;;;2.60;1.00;;;;;;4963622;28;20714;-88
2023/01/22 07:50:16;;;;;;;20.02;12.15;;;2.60;1.00;;;;;;4961379;28;20227;-89
2023/01/22 07:52:41;;;;;;;19.20;12.23;;;2.60;1.00;;;;;;4959804;28;20228;-89
2023/01/22 07:55:07;;;;;;;20.20;12.63;;;2.70;1.00;;;;;;4954443;28;20185;-88
2023/01/22 07:57:33;;;;;;;19.35;12.38;;;2.70;99.90;;;;;;4955190;28;20631;-88
2023/01/22 07:59:58;;;;;;;18.60;11.87;;;2.70;99.90;;;;;;4959209;28;20207;-89
2023/01/22 08:02:24;;;;;;;20.37;13.87;;;2.70;99.90;;;;;;4955285;28;20212;-90
2023/01/22 08:04:49;;;;;;;18.77;13.30;;;2.70;99.90;;;;;;4960189;28;20192;-90
2023/01/22 08:07:19;;;;;;;22.30;13.63;;;2.70;99.90;;;;;;4954877;28;20673;-91
2023/01/22 08:09:44;;;;;;;20.08;12.63;;;2.70;1.00;;;;;;4954459;28;20226;-91
2023/01/22 08:12:10;;;;;;;19.27;13.00;;;2.80;1.00;;;;;;4957895;28;20204;-91
2023/01/22 08:14:36;;;;;;;19.73;13.17;;;2.80;1.00;;;;;;4959012;28;20192;-90
2023/01/22 08:17:01;;;;;;;21.10;14.50;;;2.70;1.00;;;;;;4962455;28;20493;-91
2023/01/22 08:19:28;;;;;;;20.37;12.63;;;2.80;1.00;;;;;;4968439;28;20250;-90
2023/01/22 08:21:54;;;;;;;17.63;13.35;;;2.80;1.00;;;;;;4952348;28;20247;-91
2023/01/22 08:24:20;;;;;;;21.85;13.95;;;2.80;1.00;;;;;;4950506;28;20639;-89
2023/01/22 08:26:45;;;;;;;21.70;14.37;;;2.80;99.90;;;;;;4962656;28;20196;-90
2023/01/22 08:29:11;;;;;;;19.07;12.60;;;2.80;99.90;;;;;;4964102;28;20215;-91
2023/01/22 08:31:36;;;;;;;20.73;13.20;;;2.90;99.90;;;;;;4961329;28;20666;-88
2023/01/22 08:34:02;;;;;;;18.50;12.93;;;2.90;99.90;;;;;;4954483;28;20706;-89
2023/01/22 08:36:28;;;;;;;21.53;13.10;;;3.00;99.90;;;;;;4956973;28;20231;-90
2023/01/22 08:38:53;;;;;;;23.00;14.33;;;3.00;99.80;;;;;;4962492;28;20184;-90
2023/01/22 08:41:20;;;;;;;18.80;12.47;;;3.10;1.00;;;;;;4954035;28;20742;-89
2023/01/22 08:43:45;;;;;;;23.23;12.90;;;3.10;1.00;;;;;;4949254;28;20517;-89
2023/01/22 08:46:11;;;;;;;16.53;11.50;;;3.20;1.00;;;;;;4950415;28;20228;-89
2023/01/22 08:48:37;;;;;;;18.77;12.40;;;3.20;99.90;;;;;;4949879;28;20192;-89
2023/01/22 08:51:03;;;;;;;18.98;13.57;;;3.30;99.90;;;;;;4955301;28;20204;-89
2023/01/22 08:53:29;;;;;;;21.23;13.50;;;3.20;1.00;;;;;;4958963;28;20209;-88
2023/01/22 08:55:54;;;;;;;19.38;12.63;;;3.20;1.00;;;;;;4960898;28;20181;-89
2023/01/22 08:58:30;;;;;;;19.03;13.07;;;3.20;1.00;;;;;;4950634;28;20213;-89
2023/01/22 09:00:56;;;;;;;20.13;13.88;;;3.20;1.00;;;;;;4945091;28;20222;-88
2023/01/22 09:03:22;;;;;;;20.60;12.23;;;3.30;1.00;;;;;;4953338;28;20212;-89
2023/01/22 09:05:48;;;;;;;18.40;10.83;;;3.30;1.00;;;;;;4956533;28;20195;-90
2023/01/22 09:08:13;;;;;;;18.80;12.30;;;3.30;1.00;;;;;;4959039;28;20443;-89
2023/01/22 09:10:39;;;;;;;19.07;13.27;;;3.40;1.00;;;;;;4967214;28;20502;-89
2023/01/22 09:13:05;;;;;;;20.07;14.07;;;3.40;1.00;;;;;;4956501;28;20263;-87
2023/01/22 09:15:30;;;;;;;18.40;13.70;;;3.40;1.00;;;;;;4950753;28;20471;-88
2023/01/22 09:17:56;;;;;;;19.93;13.73;;;3.40;99.90;;;;;;4959549;28;20180;-89
2023/01/22 09:20:21;;;;;;;20.60;13.00;;;3.40;99.90;;;;;;4958787;28;20196;-88
2023/01/22 09:22:47;;;;;;;17.93;12.10;;;3.50;99.90;;;;;;4959255;28;20251;-88
2023/01/22 09:25:14;;;;;;;19.90;12.87;;;3.50;99.90;;;;;;4966833;28;20192;-88
2023/01/22 09:27:40;;;;;;;19.73;13.48;;;3.50;99.90;;;;;;4961926;28;20440;-88
2023/01/22 09:30:08;;;;;;;21.63;14.93;;;3.50;1.00;;;;;;4946997;28;20286;-89
2023/01/22 09:32:34;;;;;;;20.95;14.05;;;3.60;1.00;;;;;;4952869;28;20598;-89
2023/01/22 09:35:00;;;;;;;20.23;13.38;;;3.60;1.00;;;;;;4960096;28;20180;-88
2023/01/22 09:37:25;;;;;;;19.60;14.00;;;3.70;1.00;;;;;;4964807;28;20196;-89
2023/01/22 09:39:51;;;;;;;20.83;13.83;;;3.80;1.00;;;;;;4958676;28;20619;-88
2023/01/22 09:42:26;;;;;;;18.97;14.27;;;3.90;99.90;;;;;;4954668;28;20201;-89
2023/01/22 09:44:57;;;;;;;19.25;13.88;;;4.00;99.90;;;;;;4963036;28;20812;-89
2023/01/22 09:47:32;;;;;;;20.15;14.57;;;4.10;99.90;;;;;;4956377;28;20558;-88
2023/01/22 09:50:04;;;;;;;26.42;18.58;;;4.10;99.90;;;;;;4958754;28;20266;-89
2023/01/22 09:52:33;;;;;;;22.92;14.80;;;4.20;41.60;;;;;;4964509;28;20258;-88
2023/01/22 09:54:59;;;;;;;29.73;15.75;;;4.20;1.00;;;;;;4956034;28;20184;-89
2023/01/22 09:57:24;;;;;;;28.13;16.30;;;4.20;1.00;;;;;;4957491;28;20236;-88
2023/01/22 09:59:54;;;;;;;22.17;14.67;;;4.20;1.00;;;;;;4961205;28;20187;-88
2023/01/22 10:02:34;;;;;;;21.05;14.05;;;4.20;1.00;;;;;;4963386;28;20208;-88
2023/01/22 10:05:26;;;;;;;22.85;15.38;;;4.10;1.00;;;;;;4961546;28;20188;-89
2023/01/22 10:08:16;;;;;;;23.80;15.85;;;4.10;1.00;;;;;;4948830;28;20566;-89
2023/01/22 10:10:41;;;;;;;28.83;17.55;;;4.10;1.00;;;;;;4907832;28;20232;-89
2023/01/22 10:13:19;;;;;;;27.83;16.90;;;4.20;1.00;;;;;;4962727;28;20201;-89
2023/01/22 10:15:47;;;;;;;29.30;20.13;;;4.20;1.00;;;;;;4952876;28;20224;-89
2023/01/22 10:18:38;;;;;;;25.13;16.77;;;4.20;1.00;;;;;;4955765;28;20183;-89
2023/01/22 10:21:25;;;;;;;21.92;15.38;;;4.30;9.00;;;;;;4955012;28;20300;-89
2023/01/22 10:23:51;;;;;;;24.33;16.27;;;4.40;78.30;;;;;;4959414;28;20632;-90
2023/01/22 10:26:26;;;;;;;24.30;15.23;;;4.60;1.00;;;;;;4962439;28;20188;-89
2023/01/22 10:28:56;;;;;;;25.25;16.55;;;4.70;1.00;;;;;;4962072;28;20553;-89
2023/01/22 10:31:36;;;;;;;26.52;17.00;;;4.80;1.00;;;;;;4962344;28;20315;-89
2023/01/22 10:34:08;;;;;;;20.83;15.60;;;5.00;1.00;;;;;;4946316;28;20185;-88
2023/01/22 10:36:34;;;;;;;22.45;15.02;;;5.10;99.90;;;;;;4959781;28;20275;-89
2023/01/22 10:39:14;;;;;;;27.60;17.03;;;5.20;99.90;;;;;;4965024;28;20326;-89
2023/01/22 10:41:44;;;;;;;23.45;15.63;;;5.20;99.90;;;;;;4967034;28;20181;-88
2023/01/22 10:44:24;;;;;;;24.35;15.30;;;5.20;99.90;;;;;;4966111;28;20177;-88
2023/01/22 10:46:51;;;;;;;22.67;15.15;;;5.20;99.90;;;;;;4963161;28;20193;-89
2023/01/22 10:49:25;;;;;;;21.67;15.15;;;5.30;99.90;;;;;;4953105;28;20205;-89
2023/01/22 10:51:54;;;;;;;23.67;15.93;;;5.30;42.60;;;;;;4959177;28;20179;-88
2023/01/22 10:54:23;;;;;;;23.95;14.90;;;5.40;1.00;;;;;;4964071;28;20198;-88
2023/01/22 10:56:50;;;;;;;24.63;16.02;;;5.40;1.00;;;;;;4970947;28;20203;-89
2023/01/22 10:59:23;;;;;;;20.90;15.32;;;5.40;1.00;;;;;;4951799;28;20665;-89
2023/01/22 11:01:59;;;;;;;23.23;16.02;;;5.40;1.00;;;;;;4954249;28;20196;-88
2023/01/22 11:04:32;;;;;;;24.73;15.25;;;5.50;1.00;;;;;;4957689;28;20240;-89
2023/01/22 11:07:13;;;;;;;21.90;14.65;;;5.50;1.00;;;;;;4953674;28;20194;-89
2023/01/22 11:09:43;;;;;;;21.38;16.30;;;5.50;1.00;;;;;;4961066;28;20208;-89
2023/01/22 11:12:34;;;;;;;18.67;14.75;;;5.50;1.00;;;;;;4960235;28;20581;-89
2023/01/22 11:15:16;;;;;;;21.40;15.40;;;5.50;1.00;;;;;;4956961;28;20256;-89
2023/01/22 11:17:48;;;;;;;22.33;14.65;;;5.60;1.00;;;;;;4951610;28;20214;-89
2023/01/22 11:20:47;;;;;;;21.42;14.95;;;5.60;1.00;;;;;;4966807;28;20206;-88
2023/01/22 11:23:51;;;;;;;21.00;14.82;;;5.60;1.00;;;;;;4957538;28;20206;-89
2023/01/22 11:26:22;;;;;;;23.35;15.43;;;5.70;99.90;;;;;;4948902;28;20819;-90
2023/01/22 11:29:03;;;;;;;21.88;15.07;;;5.80;99.90;;;;;;4957577;28;20714;-89
2023/01/22 11:32:15;;;;;;;18.08;13.85;;;6.00;99.90;;;;;;4951212;28;20297;-89
2023/01/22 11:34:54;;;;;;;29.17;16.25;;;6.20;99.90;;;;;;4946147;28;20248;-89
2023/01/22 11:37:51;;;;;;;24.40;16.02;;;6.30;99.90;;;;;;4950655;28;20666;-89
2023/01/22 11:40:54;;;;;;;21.08;14.75;;;6.30;99.90;;;;;;4951799;28;20177;-89
2023/01/22 11:43:45;;;;;;;23.27;15.30;;;6.50;99.90;;;;;;4956342;28;20212;-90
2023/01/22 11:46:52;;;;;;;21.92;16.02;;;6.70;99.90;;;;;;4953655;28;20195;-90
2023/01/22 11:49:47;;;;;;;19.42;14.30;;;6.80;99.90;;;;;;4954363;28;20213;-89
2023/01/22 11:52:39;;;;;;;20.80;15.43;;;7.00;96.30;;;;;;4954485;28;20583;-89
2023/01/22 11:55:21;;;;;;;20.20;14.57;;;7.10;11.20;;;;;;4956087;28;20181;-89
2023/01/22 11:58:25;;;;;;;27.65;16.80;;;7.00;12.90;;;;;;4965371;28;20491;-89
2023/01/22 12:01:04;;;;;;;23.05;16.23;;;6.90;1.00;;;;;;4946897;28;20651;-89
2023/01/22 12:03:48;;;;;;;23.40;15.55;;;6.80;1.00;;;;;;4962849;28;20593;-88
2023/01/22 12:06:33;;;;;;;20.85;14.85;;;6.60;1.00;;;;;;4951535;28;20180;-88
2023/01/22 12:09:28;;;;;;;24.33;17.58;;;6.50;1.00;;;;;;4958543;28;20230;-88
2023/01/22 12:12:23;;;;;;;21.67;16.23;;;6.30;9.30;;;;;;4952889;28;20551;-88
2023/01/22 12:15:17;;;;;;;21.48;14.88;;;6.20;27.30;;;;;;4959610;28;20192;-88
2023/01/22 12:18:01;;;;;;;20.00;15.23;;;6.10;52.20;;;;;;4953155;28;20248;-88
2023/01/22 12:20:59;;;;;;;23.25;15.43;;;5.90;66.00;;;;;;4952423;28;20219;-89
2023/01/22 12:23:32;;;;;;;20.42;15.20;;;5.90;97.00;;;;;;4955978;28;20256;-88
2023/01/22 12:26:22;;;;;;;20.45;14.50;;;5.80;99.90;;;;;;4946458;28;20187;-88
2023/01/22 12:28:48;;;;;;;21.35;14.38;;;5.80;99.90;;;;;;4966987;28;20215;-88
2023/01/22 12:31:26;;;;;;;22.87;15.73;;;5.70;99.90;;;;;;4951694;28;20295;-88
2023/01/22 12:33:52;;;;;;;23.02;16.38;;;5.70;99.90;;;;;;4958249;28;20689;-88
2023/01/22 12:36:23;;;;;;;21.30;15.80;;;5.60;99.90;;;;;;4955543;28;20207;-89
2023/01/22 12:39:10;;;;;;;23.10;16.15;;;5.60;99.90;;;;;;4966085;28;20218;-88
2023/01/22 12:41:46;;;;;;;26.50;16.05;;;5.60;99.90;;;;;;4953344;28;20182;-88
2023/01/22 12:44:38;;;;;;;23.38;15.55;;;5.60;99.90;;;;;;4952059;28;20184;-87
2023/01/22 12:47:04;;;;;;;21.35;16.10;;;5.50;99.90;;;;;;4943054;28;20204;-88
2023/01/22 12:49:29;;;;;;;25.33;17.60;;;5.50;99.90;;;;;;4950469;28;20223;-88
2023/01/22 12:51:58;;;;;;;25.30;16.97;;;5.50;99.90;;;;;;4959518;28;20188;-88
2023/01/22 12:54:34;;;;;;;25.50;17.30;;;5.50;99.90;;;;;;4962629;28;20188;-88
2023/01/22 12:57:21;;;;;;;25.08;15.80;;;5.50;99.90;;;;;;4949360;28;20235;-87
2023/01/22 13:00:12;;;;;;;24.50;17.17;;;5.40;99.90;;;;;;4952292;28;20268;-88
2023/01/22 13:02:38;;;;;;;24.90;17.40;;;5.30;99.90;;;;;;4947129;28;20320;-88
2023/01/22 13:05:24;;;;;;;26.83;16.77;;;5.30;99.90;;;;;;4960562;28;20204;-88
2023/01/22 13:08:00;;;;;;;25.00;15.85;;;5.20;99.90;;;;;;4952255;28;20466;-88
2023/01/22 13:10:49;;;;;;;23.23;14.70;;;5.10;99.90;;;;;;4954446;28;20706;-88